Time;durP1;ratioP1;P1;durP2;ratioP2;P2;SDS_P1;SDS_P2;PMS_P1;PMS_P2;Temp;Humidity;BMP_temperature;BMP_pressure;BME280_temperature;BME280_humidity;BME280_pressure;Samples;Min_cycle;Max_cycle;Signal;HPM_P1;HPM_P2
2021/01/21 00:01:35;;;;;;;;;;;;;;;21.61;20.14;98456.31;5098496;28;1905;-79
2021/01/21 00:04:00;;;;;;;;;;;;;;;21.71;20.06;98450.44;5084081;28;645;-78
2021/01/21 00:06:26;;;;;;;;;;;;;;;21.71;20.03;98461.78;5084640;28;947;-79
2021/01/21 00:08:54;;;;;;;;;;;;;;;21.79;19.70;98451.88;5083651;28;1256;-79
2021/01/21 00:11:20;;;;;;;;;;;;;;;21.71;20.05;98473.09;5101488;28;1090;-79
2021/01/21 00:13:45;;;;;;;;;;;;;;;21.66;20.14;98465.09;5100251;28;735;-78
2021/01/21 00:16:11;;;;;;;;;;;;;;;21.88;19.57;98454.13;5084916;28;629;-79
2021/01/21 00:18:36;;;;;;;;;;;;;;;21.92;19.57;98460.53;5083938;28;717;-79
2021/01/21 00:21:02;;;;;;;;;;;;;;;21.72;19.86;98463.38;5084443;28;1894;-78
2021/01/21 00:23:30;;;;;;;;;;;;;;;21.88;19.82;98454.13;5099439;28;958;-78
2021/01/21 00:25:56;;;;;;;;;;;;;;;21.67;19.99;98458.19;5084673;28;957;-78
2021/01/21 00:28:22;;;;;;;;;;;;;;;21.68;19.97;98454.13;5100304;28;745;-79
2021/01/21 00:30:47;;;;;;;;;;;;;;;21.71;20.00;98456.09;5084743;28;693;-79
2021/01/21 00:33:13;;;;;;;;;;;;;;;21.96;19.91;98457.59;5084029;28;693;-78
2021/01/21 00:35:38;;;;;;;;;;;;;;;22.02;19.64;98464.34;5083673;28;1034;-78
2021/01/21 00:38:03;;;;;;;;;;;;;;;21.79;19.80;98463.22;5099848;28;893;-79
2021/01/21 00:40:29;;;;;;;;;;;;;;;21.69;19.97;98469.88;5100417;28;1081;-79
2021/01/21 00:42:54;;;;;;;;;;;;;;;21.79;19.86;98463.22;5100636;28;1906;-79
2021/01/21 00:45:20;;;;;;;;;;;;;;;21.88;19.80;98456.19;5084526;28;681;-79
2021/01/21 00:47:45;;;;;;;;;;;;;;;21.69;19.76;98458.56;5100734;28;641;-79
2021/01/21 00:50:11;;;;;;;;;;;;;;;21.67;19.99;98461.03;5083820;28;1017;-79
2021/01/21 00:52:36;;;;;;;;;;;;;;;21.82;19.81;98453.84;5083870;28;903;-79
2021/01/21 00:55:11;;;;;;;;;;;;;;;21.80;19.66;98459.13;5099613;28;920;-79
2021/01/21 00:57:43;;;;;;;;;;;;;;;21.67;19.73;98461.03;5083682;28;664;-79
2021/01/21 01:00:09;;;;;;;;;;;;;;;21.62;20.05;98464.38;5083827;28;717;-79
2021/01/21 01:02:41;;;;;;;;;;;;;;;21.62;19.90;98464.38;5083042;28;1953;-78
2021/01/21 01:05:08;;;;;;;;;;;;;;;21.98;19.69;98469.31;5082516;28;1198;-78
2021/01/21 01:07:33;;;;;;;;;;;;;;;21.69;19.67;98478.38;5099774;28;853;-79
2021/01/21 01:10:00;;;;;;;;;;;;;;;21.76;19.77;98474.59;5082979;28;1241;-79
2021/01/21 01:12:25;;;;;;;;;;;;;;;21.73;19.79;98469.81;5082650;28;1130;-79
2021/01/21 01:14:51;;;;;;;;;;;;;;;21.64;19.94;98473.22;5082273;28;1154;-78
2021/01/21 01:17:16;;;;;;;;;;;;;;;21.74;19.75;98466.53;5082729;28;1367;-78
2021/01/21 01:19:48;;;;;;;;;;;;;;;21.78;19.95;98470.13;5082123;28;1262;-79
2021/01/21 01:22:15;;;;;;;;;;;;;;;21.85;19.82;98461.47;5099409;28;1967;-79
2021/01/21 01:24:43;;;;;;;;;;;;;;;21.79;19.73;98468.88;5082331;28;1233;-79
2021/01/21 01:27:09;;;;;;;;;;;;;;;21.67;19.91;98466.69;5071938;28;802;-78
2021/01/21 01:29:35;;;;;;;;;;;;;;;21.74;20.01;98463.72;5082030;28;1801;-79
2021/01/21 01:32:01;;;;;;;;;;;;;;;21.81;19.85;98455.09;5099527;28;607;-78
2021/01/21 01:34:37;;;;;;;;;;;;;;;21.76;20.01;98458.44;5097213;28;1003;-79
2021/01/21 01:37:07;;;;;;;;;;;;;;;21.92;19.74;98448.41;5082193;28;1301;-79
2021/01/21 01:39:39;;;;;;;;;;;;;;;21.91;19.72;98452.44;5081654;28;1335;-78
2021/01/21 01:42:12;;;;;;;;;;;;;;;21.84;19.68;98453.41;5082172;28;1975;-78
2021/01/21 01:44:41;;;;;;;;;;;;;;;21.90;19.91;98439.53;5082258;28;658;-78
2021/01/21 01:47:07;;;;;;;;;;;;;;;21.79;19.99;98460.38;5082944;28;1327;-78
2021/01/21 01:49:35;;;;;;;;;;;;;;;21.60;19.96;98455.50;5081535;28;1353;-79
2021/01/21 01:52:01;;;;;;;;;;;;;;;21.80;19.86;98442.13;5099124;28;936;-79
2021/01/21 01:54:26;;;;;;;;;;;;;;;21.65;19.92;98445.69;5098669;28;951;-79
2021/01/21 01:56:58;;;;;;;;;;;;;;;21.81;20.00;98440.09;5079914;28;1170;-78
2021/01/21 01:59:31;;;;;;;;;;;;;;;21.72;19.77;98439.91;5081815;28;1240;-79
2021/01/21 02:01:59;;;;;;;;;;;;;;;21.77;19.85;98439.41;5082094;28;1983;-78
2021/01/21 02:04:29;;;;;;;;;;;;;;;21.93;19.84;98435.84;5081535;28;1168;-79
2021/01/21 02:07:10;;;;;;;;;;;;;;;21.94;19.72;98434.59;5096700;28;872;-79
2021/01/21 02:09:56;;;;;;;;;;;;;;;21.81;20.07;98434.44;5095154;28;1017;-79
2021/01/21 02:12:42;;;;;;;;;;;;;;;21.78;20.03;98435.31;5082055;28;1205;-78
2021/01/21 02:15:08;;;;;;;;;;;;;;;21.75;20.09;98425.66;5098195;28;1317;-78
2021/01/21 02:18:00;;;;;;;;;;;;;;;21.85;19.87;98430.31;5098156;28;1165;-78
2021/01/21 02:20:34;;;;;;;;;;;;;;;21.93;20.05;98427.34;5097806;28;1044;-78
2021/01/21 02:23:09;;;;;;;;;;;;;;;22.00;19.43;98427.97;5080795;28;1189;-79
2021/01/21 02:25:49;;;;;;;;;;;;;;;21.82;19.83;98416.22;5097335;28;1201;-78
2021/01/21 02:28:27;;;;;;;;;;;;;;;21.67;19.86;98427.06;5100663;28;1156;-78
2021/01/21 02:30:53;;;;;;;;;;;;;;;22.02;19.68;98427.53;5084778;28;1162;-79
2021/01/21 02:33:29;;;;;;;;;;;;;;;21.98;19.84;98429.66;5084152;28;1175;-78
2021/01/21 02:35:58;;;;;;;;;;;;;;;21.90;19.63;98429.00;5084536;28;983;-78
2021/01/21 02:38:25;;;;;;;;;;;;;;;21.81;19.93;98428.78;5100842;28;945;-78
2021/01/21 02:40:50;;;;;;;;;;;;;;;21.77;19.97;98433.72;5084576;28;1902;-78
2021/01/21 02:43:22;;;;;;;;;;;;;;;21.92;19.79;98437.06;5100888;28;664;-79
2021/01/21 02:45:51;;;;;;;;;;;;;;;21.70;20.04;98448.81;5085159;28;936;-78
2021/01/21 02:48:25;;;;;;;;;;;;;;;22.06;19.83;98448.09;5084363;28;1225;-79
2021/01/21 02:50:59;;;;;;;;;;;;;;;21.84;19.98;98454.19;5119081;28;1183;-78
2021/01/21 02:53:24;;;;;;;;;;;;;;;21.89;19.98;98446.44;5099756;28;918;-79
2021/01/21 02:55:57;;;;;;;;;;;;;;;21.51;20.34;98458.13;5101530;28;1093;-79
2021/01/21 02:58:33;;;;;;;;;;;;;;;21.22;20.68;98457.81;5101144;28;605;-79
2021/01/21 03:01:02;;;;;;;;;;;;;;;21.33;20.54;98456.41;5085237;28;1906;-79
2021/01/21 03:03:29;;;;;;;;;;;;;;;21.57;20.48;98462.03;5083644;28;1282;-78
2021/01/21 03:05:57;;;;;;;;;;;;;;;21.56;20.36;98457.63;5084277;28;1350;-79
2021/01/21 03:08:33;;;;;;;;;;;;;;;21.70;20.45;98454.47;5082982;28;1219;-79
2021/01/21 03:11:11;;;;;;;;;;;;;;;21.56;20.62;98455.56;5101583;28;714;-78
2021/01/21 03:13:41;;;;;;;;;;;;;;;21.74;20.37;98455.22;5100719;28;959;-79
2021/01/21 03:16:07;;;;;;;;;;;;;;;21.95;19.90;98458.84;5084659;28;1145;-78
2021/01/21 03:18:32;;;;;;;;;;;;;;;21.76;20.31;98464.09;5117447;28;1341;-79
2021/01/21 03:20:58;;;;;;;;;;;;;;;21.65;20.49;98454.97;5118053;28;1902;-78
2021/01/21 03:23:41;;;;;;;;;;;;;;;21.67;20.47;98475.19;5083441;28;1162;-79
2021/01/21 03:26:08;;;;;;;;;;;;;;;21.63;20.51;98468.78;5085167;28;1193;-79
2021/01/21 03:28:52;;;;;;;;;;;;;;;21.79;20.27;98471.72;5083505;28;1374;-78
2021/01/21 03:31:19;;;;;;;;;;;;;;;21.85;20.13;98472.78;5101729;28;646;-79
2021/01/21 03:33:44;;;;;;;;;;;;;;;21.82;20.25;98472.88;5083357;28;1332;-79
2021/01/21 03:36:10;;;;;;;;;;;;;;;21.66;20.24;98476.44;5085240;28;1170;-79
2021/01/21 03:38:36;;;;;;;;;;;;;;;21.85;20.39;98472.78;5087599;28;1118;-79
2021/01/21 03:41:36;;;;;;;;;;;;;;;21.61;20.37;98479.78;5083676;28;1906;-78
2021/01/21 03:44:17;;;;;;;;;;;;;;;21.68;20.58;98473.94;5056503;28;1233;-79
2021/01/21 03:46:48;;;;;;;;;;;;;;;21.87;19.99;98477.25;5088007;28;1254;-78
2021/01/21 03:49:24;;;;;;;;;;;;;;;21.87;20.01;98475.22;5121066;28;1241;-79
2021/01/21 03:52:01;;;;;;;;;;;;;;;21.92;20.01;98465.41;5089682;28;837;-79
2021/01/21 03:54:36;;;;;;;;;;;;;;;21.94;20.16;98474.25;5103096;28;1297;-79
2021/01/21 03:57:09;;;;;;;;;;;;;;;22.03;20.30;98474.47;5075073;28;1254;-79
2021/01/21 03:59:35;;;;;;;;;;;;;;;22.07;20.00;98466.69;5085686;28;1150;-79
2021/01/21 04:02:00;;;;;;;;;;;;;;;22.05;20.02;98474.84;5095575;28;1993;-79
2021/01/21 04:04:27;;;;;;;;;;;;;;;21.97;19.90;98467.72;5058671;28;1186;-79
2021/01/21 04:06:53;;;;;;;;;;;;;;;21.81;20.19;98483.41;5078669;28;1218;-79
2021/01/21 04:09:26;;;;;;;;;;;;;;;21.71;20.64;98484.44;5080014;28;1210;-79
2021/01/21 04:12:26;;;;;;;;;;;;;;;21.68;20.63;98479.63;5087620;28;1396;-79
2021/01/21 04:14:54;;;;;;;;;;;;;;;21.79;20.24;98485.88;5070826;28;1098;-79
2021/01/21 04:17:19;;;;;;;;;;;;;;;21.81;20.35;98482.59;5070654;28;1368;-79
2021/01/21 04:19:46;;;;;;;;;;;;;;;21.87;20.40;98488.59;5070232;28;1230;-79
2021/01/21 04:22:12;;;;;;;;;;;;;;;22.17;19.92;98493.22;5070720;28;1906;-79
2021/01/21 04:24:39;;;;;;;;;;;;;;;22.00;20.34;98495.19;5087298;28;1210;-79
2021/01/21 04:27:12;;;;;;;;;;;;;;;22.00;20.32;98495.97;5087510;28;1350;-79
2021/01/21 04:29:46;;;;;;;;;;;;;;;21.80;20.47;98501.63;5086842;28;1230;-79
2021/01/21 04:32:12;;;;;;;;;;;;;;;21.84;20.56;98502.38;5087339;28;1163;-79
2021/01/21 04:34:38;;;;;;;;;;;;;;;21.85;20.62;98501.13;5070255;28;1300;-79
2021/01/21 04:37:03;;;;;;;;;;;;;;;22.00;20.05;98495.19;5087176;28;1234;-79
2021/01/21 04:39:52;;;;;;;;;;;;;;;21.96;20.08;98494.44;5056977;28;1151;-79
2021/01/21 04:42:20;;;;;;;;;;;;;;;22.01;20.08;98508.09;5071296;28;1902;-79
2021/01/21 04:44:46;;;;;;;;;;;;;;;21.97;20.32;98507.41;5069830;28;1344;-78
2021/01/21 04:47:47;;;;;;;;;;;;;;;21.75;20.70;98507.78;5070987;28;1363;-79
2021/01/21 04:50:15;;;;;;;;;;;;;;;21.76;20.48;98509.41;5104358;28;980;-79
2021/01/21 04:52:55;;;;;;;;;;;;;;;21.91;20.30;98509.91;5071961;28;1304;-80
2021/01/21 04:55:30;;;;;;;;;;;;;;;21.87;20.33;98502.75;5070345;28;1484;-79
2021/01/21 04:58:17;;;;;;;;;;;;;;;21.87;20.54;98502.75;5108714;28;1183;-79
2021/01/21 05:00:43;;;;;;;;;;;;;;;21.70;20.52;98501.84;5090688;28;1968;-78
2021/01/21 05:03:09;;;;;;;;;;;;;;;21.27;21.15;98506.22;5106454;28;709;-79
2021/01/21 05:05:53;;;;;;;;;;;;;;;21.34;21.14;98513.81;5110397;28;826;-79
2021/01/21 05:08:19;;;;;;;;;;;;;;;21.61;20.80;98508.09;5089450;28;1372;-79
2021/01/21 05:11:04;;;;;;;;;;;;;;;21.61;20.69;98508.09;5125052;28;1092;-79
2021/01/21 05:13:43;;;;;;;;;;;;;;;21.83;20.28;98503.59;5106226;28;1074;-79
2021/01/21 05:16:32;;;;;;;;;;;;;;;21.75;20.74;98502.13;5109943;28;957;-79
2021/01/21 05:19:17;;;;;;;;;;;;;;;21.90;20.51;98504.69;5068621;28;1088;-79
2021/01/21 05:22:05;;;;;;;;;;;;;;;21.75;20.56;98502.13;5110191;28;1977;-79
2021/01/21 05:24:51;;;;;;;;;;;;;;;21.76;20.42;98500.91;5123701;28;1066;-79
2021/01/21 05:27:45;;;;;;;;;;;;;;;21.88;20.45;98501.50;5106454;28;1178;-78
2021/01/21 05:30:37;;;;;;;;;;;;;;;21.82;20.34;98507.69;5110329;28;1114;-79
2021/01/21 05:33:02;;;;;;;;;;;;;;;21.76;20.54;98506.59;5106065;28;673;-79
2021/01/21 05:35:51;;;;;;;;;;;;;;;21.97;20.35;98499.69;5094127;28;1212;-79
2021/01/21 05:38:17;;;;;;;;;;;;;;;21.90;20.65;98507.53;5106207;28;1213;-79
2021/01/21 05:41:09;;;;;;;;;;;;;;;21.81;20.67;98508.91;5071609;28;1910;-79
2021/01/21 05:43:53;;;;;;;;;;;;;;;21.68;20.82;98507.16;5108439;28;888;-78
2021/01/21 05:46:31;;;;;;;;;;;;;;;21.86;20.47;98518.91;5091104;28;1288;-79
2021/01/21 05:48:57;;;;;;;;;;;;;;;21.74;20.58;98509.03;5088316;28;1297;-79
2021/01/21 05:51:27;;;;;;;;;;;;;;;21.89;20.44;98517.25;5090085;28;1094;-79
2021/01/21 05:53:57;;;;;;;;;;;;;;;21.94;20.45;98525.25;5106429;28;610;-80
2021/01/21 05:56:36;;;;;;;;;;;;;;;21.75;20.50;98527.63;5091071;28;1166;-80
2021/01/21 05:59:15;;;;;;;;;;;;;;;21.91;20.33;98526.91;5090617;28;1193;-79
2021/01/21 06:01:43;;;;;;;;;;;;;;;21.80;20.48;98524.28;5106287;28;1901;-79
2021/01/21 06:04:15;;;;;;;;;;;;;;;21.84;20.56;98522.19;5089454;28;1301;-79
2021/01/21 06:06:43;;;;;;;;;;;;;;;21.96;20.44;98534.09;5124339;28;1051;-77
2021/01/21 06:12:26;;;;;;;;;;;;;;;21.79;20.62;98533.22;5123820;28;989;-78
2021/01/21 06:14:52;;;;;;;;;;;;;;;21.56;20.80;98539.72;5104771;28;872;-77
2021/01/21 06:17:17;;;;;;;;;;;;;;;21.18;21.04;98536.28;5122669;28;660;-77
2021/01/21 06:20:06;;;;;;;;;;;;;;;21.39;20.84;98540.81;5108722;28;996;-79
2021/01/21 06:22:32;;;;;;;;;;;;;;;21.46;20.91;98537.88;5089048;28;1980;-78
2021/01/21 06:25:03;;;;;;;;;;;;;;;21.51;20.75;98543.06;5088942;28;1376;-79
2021/01/21 06:27:28;;;;;;;;;;;;;;;21.71;20.75;98545.91;5123251;28;911;-78
2021/01/21 06:29:54;;;;;;;;;;;;;;;21.51;20.70;98548.72;5105098;28;903;-79
2021/01/21 06:32:21;;;;;;;;;;;;;;;21.68;20.72;98541.94;5088673;28;1171;-79
2021/01/21 06:34:46;;;;;;;;;;;;;;;21.78;20.79;98542.97;5105263;28;567;-79
2021/01/21 06:37:12;;;;;;;;;;;;;;;21.80;20.83;98555.44;5123681;28;673;-79
2021/01/21 06:39:45;;;;;;;;;;;;;;;21.83;20.66;98548.13;5104843;28;973;-79
2021/01/21 06:42:11;;;;;;;;;;;;;;;21.94;20.38;98547.94;5105648;28;1898;-79
2021/01/21 06:44:36;;;;;;;;;;;;;;;21.85;20.41;98551.31;5104242;28;921;-79
2021/01/21 06:47:02;;;;;;;;;;;;;;;21.78;20.76;98551.47;5122740;28;665;-78
2021/01/21 06:49:27;;;;;;;;;;;;;;;21.93;20.29;98560.50;5103861;28;828;-79
2021/01/21 06:51:53;;;;;;;;;;;;;;;21.82;20.54;98557.88;5105415;28;820;-79
2021/01/21 06:54:18;;;;;;;;;;;;;;;21.82;20.35;98569.19;5104500;28;924;-78
2021/01/21 06:56:44;;;;;;;;;;;;;;;21.78;20.86;98563.59;5101273;28;959;-79
2021/01/21 06:59:09;;;;;;;;;;;;;;;21.82;20.52;98570.00;5101121;28;989;-79
2021/01/21 07:01:40;;;;;;;;;;;;;;;21.87;20.65;98580.03;5102796;28;1910;-79
2021/01/21 07:04:20;;;;;;;;;;;;;;;21.93;20.62;98581.13;5102008;28;665;-79
2021/01/21 07:06:52;;;;;;;;;;;;;;;22.10;20.31;98573.50;5102908;28;729;-79
2021/01/21 07:09:38;;;;;;;;;;;;;;;21.97;20.46;98569.75;5101904;28;705;-79
2021/01/21 07:12:04;;;;;;;;;;;;;;;21.95;20.57;98577.84;5093097;28;870;-79
2021/01/21 07:14:30;;;;;;;;;;;;;;;21.56;20.99;98565.22;5100501;28;1055;-79
2021/01/21 07:16:58;;;;;;;;;;;;;;;21.23;21.30;98576.22;5102272;28;603;-79
2021/01/21 07:19:33;;;;;;;;;;;;;;;21.43;21.19;98569.88;5100796;28;641;-79
2021/01/21 07:21:58;;;;;;;;;;;;;;;21.46;21.23;98581.16;5101487;28;1902;-79
2021/01/21 07:24:25;;;;;;;;;;;;;;;21.81;20.55;98588.22;5101230;28;1231;-79
2021/01/21 07:26:51;;;;;;;;;;;;;;;21.94;20.43;98587.59;5101361;28;1437;-78
2021/01/21 07:29:17;;;;;;;;;;;;;;;22.03;20.54;98585.78;5099868;28;1160;-76
2021/01/21 07:31:52;;;;;;;;;;;;;;;22.06;20.59;98590.56;5100988;28;1058;-78
2021/01/21 07:34:24;;;;;;;;;;;;;;;22.07;20.61;98591.38;5102952;28;645;-78
2021/01/21 07:37:08;;;;;;;;;;;;;;;21.45;21.25;98584.38;5103785;28;685;-80
2021/01/21 07:39:54;;;;;;;;;;;;;;;21.72;21.11;98587.19;5102084;28;618;-80
2021/01/21 07:42:20;;;;;;;;;;;;;;;21.47;21.15;98590.44;5101577;28;1984;-80
2021/01/21 07:44:53;;;;;;;;;;;;;;;22.25;20.43;98585.41;5102480;28;870;-80
2021/01/21 07:47:37;;;;;;;;;;;;;;;22.45;20.36;98593.91;5102585;28;697;-79
2021/01/21 07:50:30;;;;;;;;;;;;;;;21.90;20.57;98586.84;5092540;28;697;-81
2021/01/21 07:52:59;;;;;;;;;;;;;;;21.76;20.97;98588.72;5098936;28;1231;-78
2021/01/21 07:55:28;;;;;;;;;;;;;;;21.59;21.32;98589.81;5084783;28;883;-80
2021/01/21 07:57:54;;;;;;;;;;;;;;;22.50;20.28;98584.91;5082763;28;1113;-80
2021/01/21 08:00:20;;;;;;;;;;;;;;;22.26;20.52;98576.44;5083027;28;848;-80
2021/01/21 08:02:52;;;;;;;;;;;;;;;22.04;21.04;98576.06;5050150;28;1960;-80
2021/01/21 08:05:18;;;;;;;;;;;;;;;22.07;20.94;98578.03;5083476;28;942;-79
2021/01/21 08:07:43;;;;;;;;;;;;;;;21.91;21.26;98577.91;5084439;28;1099;-82
2021/01/21 08:10:09;;;;;;;;;;;;;;;21.90;21.38;98572.69;5102905;28;1173;-81
2021/01/21 08:12:34;;;;;;;;;;;;;;;21.50;21.55;98586.72;5103407;28;874;-80
2021/01/21 08:15:00;;;;;;;;;;;;;;;21.51;21.87;98586.31;5104080;28;877;-81
2021/01/21 08:17:25;;;;;;;;;;;;;;;21.73;21.64;98577.44;5106376;28;892;-78
2021/01/21 08:19:51;;;;;;;;;;;;;;;21.62;21.55;98588.19;5104229;28;638;-82
2021/01/21 08:22:19;;;;;;;;;;;;;;;22.03;21.33;98585.78;5090729;28;1952;-81
2021/01/21 08:24:57;;;;;;;;;;;;;;;22.46;20.80;98589.84;5091676;28;1200;-81
2021/01/21 08:27:23;;;;;;;;;;;;;;;22.50;20.74;98584.91;5109660;28;980;-81
2021/01/21 08:29:48;;;;;;;;;;;;;;;22.19;21.23;98593.63;5091290;28;900;-82
2021/01/21 08:32:14;;;;;;;;;;;;;;;21.80;21.40;98589.44;5091022;28;645;-81
2021/01/21 08:34:39;;;;;;;;;;;;;;;20.94;22.47;98583.56;5106985;28;648;-78
2021/01/21 08:37:05;;;;;;;;;;;;;;;21.89;21.45;98585.25;5089012;28;650;-79
2021/01/21 08:39:30;;;;;;;;;;;;;;;21.95;21.50;98575.03;5108092;28;798;-80
2021/01/21 08:41:56;;;;;;;;;;;;;;;21.93;21.53;98583.97;5108905;28;1902;-80
2021/01/21 08:44:21;;;;;;;;;;;;;;;22.20;20.99;98581.03;5091050;28;1058;-80
2021/01/21 08:50:19;;;;;;;;;;;;;;;21.20;22.04;98577.09;5094679;28;561;-77
2021/01/21 08:53:04;;;;;;;;;;;;;;;21.53;21.96;98577.41;5105311;28;681;-78
2021/01/21 08:55:42;;;;;;;;;;;;;;;21.76;21.57;98565.25;5105137;28;693;-78
2021/01/21 08:58:08;;;;;;;;;;;;;;;21.79;21.48;98570.84;5108171;28;1195;-78
2021/01/21 09:00:34;;;;;;;;;;;;;;;22.06;20.96;98562.22;5070821;28;1192;-78
2021/01/21 09:03:00;;;;;;;;;;;;;;;22.11;21.08;98563.81;5086511;28;1968;-78
2021/01/21 09:05:26;;;;;;;;;;;;;;;22.09;21.16;98560.59;5087127;28;979;-77
2021/01/21 09:07:54;;;;;;;;;;;;;;;21.97;21.28;98558.41;5104157;28;729;-78
2021/01/21 09:10:19;;;;;;;;;;;;;;;21.96;21.25;98556.78;5087679;28;733;-78
2021/01/21 09:12:45;;;;;;;;;;;;;;;22.08;20.99;98554.13;5104513;28;735;-78
2021/01/21 09:15:11;;;;;;;;;;;;;;;22.07;21.15;98551.69;5103837;28;1027;-78
2021/01/21 09:17:37;;;;;;;;;;;;;;;21.92;21.38;98544.75;5070086;28;1554;-77
2021/01/21 09:20:17;;;;;;;;;;;;;;;21.93;21.11;98546.31;5086210;28;840;-78
2021/01/21 09:22:46;;;;;;;;;;;;;;;21.89;21.40;98539.94;5104711;28;1902;-78
2021/01/21 09:25:12;;;;;;;;;;;;;;;21.96;21.15;98536.94;5087099;28;848;-78
2021/01/21 09:27:37;;;;;;;;;;;;;;;21.61;21.40;98533.56;5087035;28;634;-78
2021/01/21 09:30:12;;;;;;;;;;;;;;;21.12;22.33;98535.97;5104014;28;841;-78
2021/01/21 09:32:42;;;;;;;;;;;;;;;21.70;21.43;98539.44;5104319;28;929;-79
2021/01/21 09:35:14;;;;;;;;;;;;;;;21.81;21.21;98540.06;5086035;28;670;-79
2021/01/21 09:37:49;;;;;;;;;;;;;;;21.70;21.43;98530.94;5087141;28;674;-78
2021/01/21 09:40:16;;;;;;;;;;;;;;;21.88;21.33;98522.13;5086501;28;765;-78
2021/01/21 09:42:41;;;;;;;;;;;;;;;21.79;21.34;98524.72;5086670;28;1902;-78
2021/01/21 09:45:07;;;;;;;;;;;;;;;21.79;21.12;98519.88;5103585;28;993;-78
2021/01/21 09:47:33;;;;;;;;;;;;;;;22.02;20.91;98518.19;5104036;28;880;-78
2021/01/21 09:49:59;;;;;;;;;;;;;;;22.14;20.98;98528.94;5086622;28;976;-78
2021/01/21 09:52:25;;;;;;;;;;;;;;;21.96;20.93;98506.56;5086597;28;650;-77
2021/01/21 09:54:50;;;;;;;;;;;;;;;21.96;20.89;98511.44;5103697;28;668;-78
2021/01/21 09:57:16;;;;;;;;;;;;;;;22.15;20.66;98518.38;5109421;28;1127;-78
2021/01/21 09:59:42;;;;;;;;;;;;;;;22.17;21.03;98513.88;5123668;28;986;-78
2021/01/21 10:02:07;;;;;;;;;;;;;;;22.11;21.01;98509.94;5088941;28;1906;-78
2021/01/21 10:04:36;;;;;;;;;;;;;;;21.49;21.48;98503.81;5123924;28;931;-78
2021/01/21 10:07:02;;;;;;;;;;;;;;;21.15;21.80;98498.34;5124338;28;673;-78
2021/01/21 10:09:27;;;;;;;;;;;;;;;21.57;21.40;98496.81;5105958;28;633;-78
2021/01/21 10:11:53;;;;;;;;;;;;;;;21.84;21.36;98498.72;5124364;28;610;-78
2021/01/21 10:14:18;;;;;;;;;;;;;;;21.85;21.14;98495.47;5105363;28;924;-78
2021/01/21 10:16:44;;;;;;;;;;;;;;;21.79;21.15;98491.53;5124158;28;829;-78
2021/01/21 10:19:10;;;;;;;;;;;;;;;21.75;21.42;98485.13;5105761;28;927;-78
2021/01/21 10:21:36;;;;;;;;;;;;;;;21.86;21.26;98473.59;5123744;28;1878;-78
2021/01/21 10:24:01;;;;;;;;;;;;;;;22.09;20.98;98465.03;5105173;28;915;-78
2021/01/21 10:26:33;;;;;;;;;;;;;;;22.03;20.81;98463.16;5106378;28;649;-78
2021/01/21 10:28:58;;;;;;;;;;;;;;;22.02;21.13;98458.69;5122855;28;986;-78
2021/01/21 10:31:24;;;;;;;;;;;;;;;22.08;20.72;98457.75;5123596;28;863;-78
2021/01/21 10:33:49;;;;;;;;;;;;;;;21.63;21.42;98454.63;5122895;28;896;-78
2021/01/21 10:36:15;;;;;;;;;;;;;;;21.34;21.76;98448.69;5123567;28;652;-78
2021/01/21 10:38:40;;;;;;;;;;;;;;;21.68;21.35;98439.97;5087759;28;797;-76
2021/01/21 10:41:06;;;;;;;;;;;;;;;21.67;21.52;98444.03;5105015;28;1897;-78
2021/01/21 10:43:32;;;;;;;;;;;;;;;21.73;21.46;98430.16;5122388;28;1030;-79
2021/01/21 10:45:57;;;;;;;;;;;;;;;21.91;21.03;98429.78;5123302;28;835;-79
2021/01/21 10:48:23;;;;;;;;;;;;;;;21.95;21.16;98425.66;5105776;28;1062;-79
2021/01/21 10:50:48;;;;;;;;;;;;;;;21.97;21.23;98428.06;5089342;28;826;-78
2021/01/21 10:53:13;;;;;;;;;;;;;;;21.97;21.24;98436.56;5122925;28;618;-79
2021/01/21 10:55:39;;;;;;;;;;;;;;;21.88;21.17;98419.34;5123560;28;625;-79
2021/01/21 10:58:05;;;;;;;;;;;;;;;21.85;21.24;98421.81;5121712;28;1100;-78
2021/01/21 11:00:31;;;;;;;;;;;;;;;22.10;21.01;98411.97;5123323;28;906;-79
2021/01/21 11:02:57;;;;;;;;;;;;;;;22.01;21.38;98412.56;5123249;28;1913;-79
2021/01/21 11:05:22;;;;;;;;;;;;;;;22.04;21.29;98408.06;5124026;28;650;-79
2021/01/21 11:07:48;;;;;;;;;;;;;;;22.06;21.21;98411.25;5105736;28;805;-79
2021/01/21 11:10:13;;;;;;;;;;;;;;;21.69;21.57;98398.28;5123413;28;714;-78
2021/01/21 11:12:39;;;;;;;;;;;;;;;21.19;22.07;98402.88;5123617;28;967;-78
2021/01/21 11:15:05;;;;;;;;;;;;;;;21.29;22.31;98401.84;5105214;28;952;-79
2021/01/21 11:17:30;;;;;;;;;;;;;;;21.63;21.64;98392.34;5123928;28;973;-78
2021/01/21 11:19:56;;;;;;;;;;;;;;;21.80;21.57;98379.03;5122989;28;645;-79
2021/01/21 11:22:22;;;;;;;;;;;;;;;21.86;21.33;98391.44;5123384;28;1980;-79
2021/01/21 11:24:48;;;;;;;;;;;;;;;21.92;21.38;98388.91;5123030;28;614;-78
2021/01/21 11:27:13;;;;;;;;;;;;;;;21.86;21.41;98382.94;5123065;28;829;-79
2021/01/21 11:29:39;;;;;;;;;;;;;;;22.07;21.19;98371.16;5122467;28;856;-78
2021/01/21 11:32:04;;;;;;;;;;;;;;;21.98;21.34;98378.66;5124140;28;977;-79
2021/01/21 11:34:30;;;;;;;;;;;;;;;21.90;21.37;98382.88;5105879;28;721;-79
2021/01/21 11:36:55;;;;;;;;;;;;;;;21.89;21.44;98369.94;5123525;28;610;-79
2021/01/21 11:39:21;;;;;;;;;;;;;;;21.93;21.43;98365.81;5087831;28;778;-79
2021/01/21 11:41:46;;;;;;;;;;;;;;;21.94;21.57;98360.94;5123432;28;1937;-78
2021/01/21 11:44:11;;;;;;;;;;;;;;;21.97;21.30;98348.72;5122939;28;650;-78
2021/01/21 11:46:37;;;;;;;;;;;;;;;21.92;21.29;98346.41;5124237;28;697;-79
2021/01/21 11:49:02;;;;;;;;;;;;;;;21.90;21.51;98360.19;5122221;28;806;-79
2021/01/21 11:51:28;;;;;;;;;;;;;;;21.91;21.32;98353.28;5123190;28;895;-79
2021/01/21 11:53:53;;;;;;;;;;;;;;;22.01;21.33;98349.44;5122333;28;865;-79
2021/01/21 11:56:19;;;;;;;;;;;;;;;21.76;21.30;98345.13;5123453;28;718;-78
2021/01/21 11:58:45;;;;;;;;;;;;;;;21.38;21.95;98346.75;5125361;28;969;-78
2021/01/21 12:01:11;;;;;;;;;;;;;;;21.36;21.99;98349.22;5127626;28;1890;-79
2021/01/21 12:03:36;;;;;;;;;;;;;;;21.57;21.66;98343.91;5108303;28;1446;-79
2021/01/21 12:06:01;;;;;;;;;;;;;;;21.72;21.72;98354.94;5109663;28;930;-78
2021/01/21 12:08:27;;;;;;;;;;;;;;;21.81;21.49;98341.78;5108007;28;923;-79
2021/01/21 12:10:53;;;;;;;;;;;;;;;21.98;21.24;98341.81;5109218;28;917;-78
2021/01/21 12:13:18;;;;;;;;;;;;;;;21.94;21.29;98343.94;5108434;28;868;-79
2021/01/21 12:15:43;;;;;;;;;;;;;;;21.88;21.31;98340.03;5127337;28;614;-78
2021/01/21 12:18:09;;;;;;;;;;;;;;;22.15;21.14;98337.78;5126047;28;977;-79
2021/01/21 12:20:34;;;;;;;;;;;;;;;21.94;21.38;98332.59;5126689;28;902;-79
2021/01/21 12:23:00;;;;;;;;;;;;;;;21.97;21.32;98348.72;5108795;28;1910;-79
2021/01/21 12:25:25;;;;;;;;;;;;;;;21.80;21.42;98345.84;5127059;28;642;-78
2021/01/21 12:27:51;;;;;;;;;;;;;;;21.87;21.48;98339.22;5126306;28;753;-79
2021/01/21 12:30:16;;;;;;;;;;;;;;;22.12;21.24;98343.53;5126499;28;689;-79
2021/01/21 12:32:42;;;;;;;;;;;;;;;22.00;21.33;98345.00;5126682;28;634;-78
2021/01/21 12:35:08;;;;;;;;;;;;;;;21.84;21.48;98349.38;5125978;28;927;-78
2021/01/21 12:37:33;;;;;;;;;;;;;;;21.85;21.38;98348.16;5106651;28;1124;-78
2021/01/21 12:40:01;;;;;;;;;;;;;;;22.02;21.13;98343.34;5092916;28;1285;-78
2021/01/21 12:42:26;;;;;;;;;;;;;;;21.79;21.40;98341.41;5126732;28;1901;-79
2021/01/21 12:44:52;;;;;;;;;;;;;;;21.91;21.21;98344.78;5126032;28;714;-78
2021/01/21 12:47:17;;;;;;;;;;;;;;;21.61;21.73;98349.50;5126838;28;659;-78
2021/01/21 12:49:43;;;;;;;;;;;;;;;21.39;22.06;98354.00;5108121;28;1034;-78
2021/01/21 12:52:09;;;;;;;;;;;;;;;21.55;22.00;98356.88;5108558;28;865;-79
2021/01/21 12:54:34;;;;;;;;;;;;;;;21.79;21.49;98344.25;5107442;28;837;-79
2021/01/21 12:57:09;;;;;;;;;;;;;;;21.82;21.48;98346.22;5108615;28;951;-78
2021/01/21 12:59:38;;;;;;;;;;;;;;;21.90;21.26;98343.22;5107964;28;976;-79
2021/01/21 13:02:03;;;;;;;;;;;;;;;22.06;21.43;98341.19;5126504;28;1882;-79
2021/01/21 13:04:29;;;;;;;;;;;;;;;22.21;20.96;98347.38;5125375;28;807;-79
2021/01/21 13:06:54;;;;;;;;;;;;;;;22.17;20.93;98338.13;5126241;28;872;-78
2021/01/21 13:09:20;;;;;;;;;;;;;;;22.10;21.07;98335.47;5124586;28;1087;-79
2021/01/21 13:11:45;;;;;;;;;;;;;;;21.93;21.30;98336.69;5126241;28;629;-79
2021/01/21 13:14:12;;;;;;;;;;;;;;;22.20;21.11;98339.31;5125728;28;594;-79
2021/01/21 13:16:37;;;;;;;;;;;;;;;21.45;21.86;98340.91;5126038;28;686;-78
2021/01/21 13:19:03;;;;;;;;;;;;;;;21.21;22.31;98338.16;5124895;28;920;-79
2021/01/21 13:21:28;;;;;;;;;;;;;;;21.53;21.89;98342.38;5125644;28;1897;-79